• Join FlightAware (Why Join?)
  • Login
  • US Flag 
01:19PM EDT


 

Airport Tracker/Info


-or-


 

Live Flight TrackerFlight Track Log ✈ SWA9013 ✈ 25-Sep-2013 ✈ KBWI - KBOS

Flight Track Log - Related Links

Times and Time Zones

All times are in EDT time to prevent confusion due to time zone crossing. See the SWA9013 flight status page for this flight to view local times or setup timezone preferences in your user account.

Time Position Orientation Groundspeed Altitude Reporting Facility
EDT Latitude Longitude Course Direction KTS MPH feet Rate Location/Type
04:32PM 39.1294 -76.6861 90° East 173 199 6,100  Level Washington Center
04:33PM 39.1344 -76.5897 86° East 145 167 8,900 2,760 Climbing Washington Center
04:34PM 39.1394 -76.4772 87° East 234 269 11,700 3,060 Climbing Washington Center
04:35PM 39.1444 -76.3542 87° East 308 354 15,000 3,300 Climbing Washington Center
04:36PM 39.1514 -76.2206 86° East 338 389 18,200 3,120 Climbing Washington Center
04:37PM 39.1500 -76.3179 90° East  Level FlightAware Approximate
04:37PM 39.1708 -76.0708 80° East 369 425 21,300  Level Washington Center
04:38PM 39.1881 -75.9264 81° East 392 451 23,600 2,160 Climbing Washington Center
04:39PM 39.2550 -75.8033 55° Northeast 391 450 25,800 2,100 Climbing Washington Center
04:40PM 39.3406 -75.6881 46° Northeast 414 476 27,900 1,980 Climbing Washington Center
04:41PM 39.4303 -75.5756 44° Northeast 428 493 29,800 1,620 Climbing Washington Center
04:43PM 39.5639 -75.4028 45° Northeast 452 520 32,200 1,620 Climbing New York Center
04:44PM 39.6564 -75.2794 46° Northeast 463 533 34,100 1,980 Climbing New York Center
04:45PM 39.7533 -75.1372 48° Northeast 472 543 36,200 1,440 Climbing New York Center
04:46PM 39.8392 -75.0153 47° Northeast 472 543 37,000 360 Climbing New York Center
04:47PM 39.9269 -74.8881 48° Northeast 477 549 37,000  Level New York Center
04:48PM 40.0189 -74.7661 45° Northeast 472 543 37,000  Level New York Center
04:49PM 40.1064 -74.6436 47° Northeast 467 537 37,000 -60 Level New York Center
04:50PM 40.1958 -74.5181 47° Northeast 467 537 36,900 -540 Descending New York Center
04:51PM 40.2869 -74.4061 43° Northeast 457 526 36,000 -960 Descending New York Center
04:53PM 40.5156 -74.1844 36° Northeast 427 491 33,600 -1,020 Descending Boston Center
04:54PM 40.6208 -74.1081 29° Northeast 427 491 32,600 -1,020 Descending Boston Center
04:55PM 40.6850 -73.9919 54° Northeast 405 466 31,600 -960 Descending Boston Center
04:56PM 40.7203 -73.8447 72° East 386 444 30,700 -840 Descending Boston Center
04:57PM 40.7742 -73.6925 65° Northeast 419 482 29,900 -1,860 Descending Boston Center
04:58PM 40.8258 -73.5317 67° East 449 517 27,100 -2,340 Descending Boston Center
04:59PM 40.8897 -73.3900 59° Northeast 451 519 25,300 -1,560 Descending Boston Center
05:00PM 40.9803 -73.2622 47° Northeast 443 510 24,000 -1,200 Descending Boston Center
05:01PM 41.0603 -73.1475 47° Northeast 429 494 23,000 -540 Descending Boston Center
05:02PM 41.1381 -73.0297 49° Northeast 429 494 23,000  Level Boston Center
05:03PM 41.2136 -72.9092 50° Northeast 423 487 23,000  Level Boston Center
05:04PM 41.2725 -72.7714 60° Northeast 423 487 23,000  Level Boston Center
05:05PM 41.3269 -72.6253 64° Northeast 428 493 23,000  Level Boston Center
05:06PM 41.3772 -72.4844 65° Northeast 428 493 23,000  Level Boston Center
05:07PM 41.4314 -72.3431 63° Northeast 423 487 23,000  Level Boston Center
05:08PM 41.4811 -72.2019 65° Northeast 418 481 23,000 -900 Level Boston Center
05:09PM 41.5244 -72.0853 64° Northeast 418 481 21,300 -2,580 Descending Boston Center
05:10PM 41.5822 -71.9156 65° Northeast 422 486 17,900 -2,700 Descending Boston Center
05:11PM 41.6231 -71.7764 69° East 409 471 16,100 -1,680 Descending Boston Center
05:12PM 41.6578 -71.6594 68° East 365 420 14,600 -1,560 Descending Boston Center
05:13PM 41.6864 -71.5561 70° East 328 377 13,000 -1,740 Descending Boston Center
05:14PM 41.7228 -71.4389 67° East 309 356 11,100 -1,020 Descending Boston Center
05:15PM 41.7450 -71.3467 72° East 298 343 11,000 -60 Descending Boston Center
05:16PM 41.7583 -71.2433 80° East 268 308 11,000  Level Boston Center
05:17PM 41.8125 -71.2258 14° North 200 230 11,000 -720 Level Boston Center
05:18PM 41.8792 -71.2272 359° North 185 213 9,700 -1,200 Descending Boston Center
05:19PM 41.9331 -71.2122 12° North 214 246 8,600 -900 Descending Boston Center
05:20PM 41.9869 -71.1861 20° North 203 234 7,900 -780 Descending Boston Center
05:21PM 42.0264 -71.1683 19° North 171 197 7,100 -960 Descending Boston Center
05:22PM 42.0742 -71.1478 18° North 163 188 6,000 -1,020 Descending Boston Center
05:23PM 42.1156 -71.1275 20° North 163 188 5,100 -1,020 Descending Boston Center
05:24PM 42.1633 -71.1042 20° North 163 188 4,000 -960 Descending Boston Center
05:25PM 42.2047 -71.0836 20° North 163 188 3,200 -960 Descending Boston Center
05:26PM 42.2544 -71.0572 21° North 163 188 2,100 -960 Descending Boston Center
05:27PM 42.2939 -71.0394 18° North 163 188 1,300 -840 Descending Boston Center
05:29PM 42.3500 -71.0000 North  Level FlightAware Approximate
05:36PM 42.3630 -71.0064 North  Level Estimated
05:37PM 42.3630 -71.0064 North  Level Estimated